CheckWX is a tool to help pilots better visualize weather data.  It is not intended as a substitute for an official pre-flight weather briefing.

05:26:03 UTC

AYMH METAR
Mount Hagen Kagamuga Airport
Mount Hagen, Papua New Guinea
Current

1 hour ago

AYMH 120400Z VRB04KT 9999 HZ SCT050 26/16 Q1015
Observed
Jul-12 @ 04:00 UTC
Wind
  • Variable at 4 KTS
Visibility
10,000+ meters
Flight Rules
VFR
Conditions
Haze
Cloud Levels
  • Scattered at 5,000' AGL
Temperature
26°C / 79°F
Dewpoint
16°C / 61°F
Humidity
54%
Altimeter
29.97" Hg
Pressure
1014.92 hPa
Previous

2 hours ago

AYMH 120300Z VRB04KT 9999 HZ SCT050 24/16 Q1017
Observed
Jul-12 @ 03:00 UTC
Wind
  • Variable at 4 KTS
Visibility
10,000+ meters
Flight Rules
VFR
Conditions
Haze
Cloud Levels
  • Scattered at 5,000' AGL
Temperature
24°C / 75°F
Dewpoint
16°C / 61°F
Humidity
61%
Altimeter
30.03" Hg
Pressure
1016.92 hPa
Previous

3 hours ago

AYMH 120200Z VRB03KT 9999 SCT050 22/15 Q1018
Observed
Jul-12 @ 02:00 UTC
Wind
  • Variable at 3 KTS
Visibility
10,000+ meters
Flight Rules
VFR
Cloud Levels
  • Scattered at 5,000' AGL
Temperature
22°C / 72°F
Dewpoint
15°C / 59°F
Humidity
65%
Altimeter
30.06" Hg
Pressure
1017.92 hPa